createdAt,value
2017-10-05T00:01:54.565Z,7.18
2017-10-05T00:04:22.064Z,5.28
2017-10-05T00:06:49.551Z,4.40
2017-10-05T00:09:17.122Z,4.05
2017-10-05T00:11:44.623Z,6.75
2017-10-05T00:14:12.120Z,7.60
2017-10-05T00:16:39.615Z,4.78
2017-10-05T00:19:07.118Z,3.70
2017-10-05T00:21:35.418Z,6.65
2017-10-05T00:24:02.954Z,8.10
2017-10-05T00:26:30.462Z,10.02
2017-10-05T00:28:57.951Z,4.07
2017-10-05T00:31:25.545Z,6.97
2017-10-05T00:33:53.049Z,6.20
2017-10-05T00:36:20.546Z,4.95
2017-10-05T00:38:48.063Z,6.43
2017-10-05T00:41:15.583Z,7.05
2017-10-05T00:43:43.115Z,8.85
2017-10-05T00:46:10.633Z,3.67
2017-10-05T00:48:38.158Z,4.30
2017-10-05T00:51:05.687Z,6.57
2017-10-05T00:53:33.184Z,4.20
2017-10-05T00:56:01.477Z,6.22
2017-10-05T00:58:28.987Z,6.97
2017-10-05T01:00:56.499Z,6.30
2017-10-05T01:03:23.995Z,6.00
2017-10-05T01:05:51.508Z,7.97
2017-10-05T01:08:19.050Z,5.22
2017-10-05T01:10:47.323Z,7.97
2017-10-05T01:13:14.851Z,4.12
2017-10-05T01:15:43.135Z,3.67
2017-10-05T01:18:10.640Z,5.68
2017-10-05T01:20:38.171Z,4.47
2017-10-05T01:23:06.450Z,7.47
2017-10-05T01:25:33.964Z,8.45
2017-10-05T01:28:01.483Z,4.80
2017-10-05T01:30:29.761Z,4.05
2017-10-05T01:32:58.048Z,4.93
2017-10-05T01:35:25.579Z,6.25
2017-10-05T01:37:53.088Z,8.60
2017-10-05T01:40:20.655Z,6.35
2017-10-05T01:42:48.155Z,4.55
2017-10-05T01:45:15.679Z,4.28
2017-10-05T01:47:43.261Z,3.50
2017-10-05T01:50:10.814Z,5.28
2017-10-05T01:52:39.193Z,10.35
2017-10-05T01:55:06.692Z,9.48
2017-10-05T01:57:34.279Z,4.20
2017-10-05T02:00:01.785Z,6.65
2017-10-05T02:02:29.302Z,5.50
2017-10-05T02:04:56.798Z,3.97
2017-10-05T02:07:24.310Z,10.20
2017-10-05T02:09:51.817Z,4.60
2017-10-05T02:12:19.326Z,5.45
2017-10-05T02:14:46.821Z,3.70
2017-10-05T02:17:14.321Z,4.50
2017-10-05T02:19:42.587Z,9.00
2017-10-05T02:22:10.867Z,5.50
2017-10-05T02:24:39.120Z,3.83
2017-10-05T02:27:06.688Z,10.20
2017-10-05T02:29:34.214Z,8.60
2017-10-05T02:32:01.711Z,5.97
2017-10-05T02:34:29.226Z,9.55
2017-10-05T02:36:56.748Z,4.72
2017-10-05T02:39:24.240Z,5.07
2017-10-05T02:41:51.762Z,6.30
2017-10-05T02:44:20.036Z,6.65
2017-10-05T02:46:48.327Z,9.25
2017-10-05T02:49:16.600Z,11.85
2017-10-05T02:51:44.879Z,7.90
2017-10-05T02:54:13.165Z,14.70
2017-10-05T02:56:40.692Z,7.25
2017-10-05T02:59:08.214Z,8.85
2017-10-05T03:01:35.723Z,6.87
2017-10-05T03:04:03.999Z,9.15
2017-10-05T03:06:32.271Z,7.68
2017-10-05T03:09:00.544Z,7.50
2017-10-05T03:11:28.063Z,6.70
2017-10-05T03:13:55.583Z,9.93
2017-10-05T03:16:23.096Z,6.93
2017-10-05T03:18:50.626Z,5.95
2017-10-05T03:21:18.121Z,7.45
2017-10-05T03:23:45.624Z,8.73
2017-10-05T03:26:13.141Z,10.43
2017-10-05T03:28:40.656Z,8.60
2017-10-05T03:31:08.170Z,14.93
2017-10-05T03:33:35.662Z,9.60
2017-10-05T03:36:03.189Z,9.88
2017-10-05T03:38:30.701Z,10.93
2017-10-05T03:40:58.214Z,12.02
2017-10-05T03:43:25.749Z,19.40
2017-10-05T03:45:54.018Z,8.60
2017-10-05T03:48:21.528Z,12.85
2017-10-05T03:50:49.798Z,10.35
2017-10-05T03:53:18.095Z,11.38
2017-10-05T03:55:45.607Z,11.75
2017-10-05T03:58:13.121Z,7.78
2017-10-05T04:00:40.635Z,8.27
2017-10-05T04:03:08.148Z,14.60
2017-10-05T04:05:35.655Z,10.52
2017-10-05T04:08:03.158Z,11.00
2017-10-05T04:10:30.679Z,12.15
2017-10-05T04:12:58.953Z,10.25
2017-10-05T04:15:27.345Z,10.35
2017-10-05T04:17:54.852Z,8.02
2017-10-05T04:20:22.357Z,11.85
2017-10-05T04:22:50.623Z,8.30
2017-10-05T04:25:18.137Z,12.48
2017-10-05T04:27:45.656Z,13.98
2017-10-05T04:30:13.181Z,11.23
2017-10-05T04:32:40.686Z,10.80
2017-10-05T04:35:08.198Z,15.80
2017-10-05T04:37:35.720Z,8.15
2017-10-05T04:40:03.223Z,9.75
2017-10-05T04:42:30.739Z,11.90
2017-10-05T04:44:58.262Z,11.57
2017-10-05T04:47:25.761Z,9.98
2017-10-05T04:49:53.277Z,14.30
2017-10-05T04:52:21.608Z,9.88
2017-10-05T04:54:49.152Z,9.45
2017-10-05T04:57:16.715Z,8.90
2017-10-05T04:59:44.211Z,10.30
2017-10-05T05:02:11.796Z,8.38
2017-10-05T05:04:40.091Z,12.00
2017-10-05T05:07:08.387Z,12.82
2017-10-05T05:09:35.934Z,10.30
2017-10-05T05:12:03.456Z,13.32
2017-10-05T05:14:30.974Z,12.70
2017-10-05T05:16:58.484Z,13.43
2017-10-05T05:19:26.004Z,12.05
2017-10-05T05:21:53.533Z,14.45
2017-10-05T05:24:21.046Z,9.68
2017-10-05T05:26:48.563Z,13.80
2017-10-05T05:29:16.079Z,14.98
2017-10-05T05:31:43.635Z,14.02
2017-10-05T05:34:11.180Z,12.15
2017-10-05T05:36:38.733Z,8.18
2017-10-05T05:39:06.248Z,17.00
2017-10-05T05:41:33.814Z,11.45
2017-10-05T05:44:01.376Z,15.45
2017-10-05T05:46:28.917Z,9.88
2017-10-05T05:48:57.223Z,13.27
2017-10-05T05:51:24.760Z,24.50
2017-10-05T05:53:52.298Z,19.45
2017-10-05T05:56:19.852Z,18.37
2017-10-05T05:58:47.352Z,15.07
2017-10-05T06:01:14.861Z,16.02
2017-10-05T06:03:42.587Z,11.48
2017-10-05T06:06:10.129Z,15.38
2017-10-05T06:08:37.659Z,17.50
2017-10-05T06:11:05.952Z,13.43
2017-10-05T06:13:34.253Z,24.05
2017-10-05T06:16:01.768Z,17.73
2017-10-05T06:18:29.328Z,18.90
2017-10-05T06:20:56.936Z,14.43
2017-10-05T06:23:24.455Z,19.85
2017-10-05T06:25:52.740Z,20.58
2017-10-05T06:28:21.034Z,20.65
2017-10-05T06:30:48.534Z,15.68
2017-10-05T06:33:16.046Z,17.45
2017-10-05T06:35:43.932Z,19.15
2017-10-05T06:38:11.546Z,19.42
2017-10-05T06:40:39.062Z,18.45
2017-10-05T06:43:06.588Z,18.20
2017-10-05T06:45:34.860Z,14.60
2017-10-05T06:48:03.142Z,19.40
2017-10-05T06:50:31.437Z,17.33
2017-10-05T06:52:58.975Z,12.88
2017-10-05T06:55:27.241Z,14.93
2017-10-05T06:57:54.775Z,22.73
2017-10-05T07:00:22.288Z,16.65
2017-10-05T07:02:49.824Z,12.75
2017-10-05T07:05:17.354Z,17.35
2017-10-05T07:07:44.869Z,16.33
2017-10-05T07:10:12.381Z,17.80
2017-10-05T07:12:39.898Z,16.08
2017-10-05T07:15:07.421Z,22.40
2017-10-05T07:17:36.675Z,18.55
2017-10-05T07:20:04.188Z,14.13
2017-10-05T07:22:32.463Z,12.35
2017-10-05T07:25:00.793Z,13.25
2017-10-05T07:27:28.309Z,12.57
2017-10-05T07:29:55.827Z,17.10
2017-10-05T07:32:23.336Z,11.85
2017-10-05T07:34:50.845Z,11.73
2017-10-05T07:37:18.368Z,21.77
2017-10-05T07:39:45.872Z,12.32
2017-10-05T07:42:13.378Z,13.15
2017-10-05T07:44:40.891Z,13.95
2017-10-05T07:47:08.415Z,13.38
2017-10-05T07:49:36.001Z,10.30
2017-10-05T07:52:03.511Z,8.30
2017-10-05T07:54:31.006Z,7.37
2017-10-05T07:56:58.536Z,11.43
2017-10-05T07:59:26.052Z,10.88
2017-10-05T08:01:53.558Z,10.90
2017-10-05T08:04:21.138Z,10.05
2017-10-05T08:06:48.741Z,11.15
2017-10-05T08:09:17.168Z,8.40
2017-10-05T08:11:44.719Z,12.77
2017-10-05T08:14:12.288Z,10.05
2017-10-05T08:16:39.941Z,10.95
2017-10-05T08:19:07.456Z,8.35
2017-10-05T08:21:34.963Z,7.12
2017-10-05T08:24:02.462Z,6.78
2017-10-05T08:26:29.987Z,7.85
2017-10-05T08:28:57.496Z,8.85
2017-10-05T08:31:25.001Z,7.85
2017-10-05T08:33:52.500Z,13.88
2017-10-05T08:36:20.039Z,6.10
2017-10-05T08:38:48.320Z,7.90
2017-10-05T08:41:15.807Z,9.50
2017-10-05T08:43:43.313Z,6.30
2017-10-05T08:46:10.818Z,7.07
2017-10-05T08:48:38.325Z,6.85
2017-10-05T08:51:05.831Z,6.72
2017-10-05T08:53:34.179Z,5.53
2017-10-05T08:56:01.704Z,6.68
2017-10-05T08:58:29.290Z,6.15
2017-10-05T09:00:56.860Z,6.57
2017-10-05T09:03:24.362Z,8.60
2017-10-05T09:05:52.638Z,5.55
2017-10-05T09:08:20.151Z,8.15
2017-10-05T09:10:47.694Z,8.73
2017-10-05T09:13:15.268Z,8.85
2017-10-05T09:15:42.772Z,7.20
2017-10-05T09:18:10.295Z,6.85
2017-10-05T09:20:38.666Z,7.50
2017-10-05T09:23:06.176Z,9.48
2017-10-05T09:25:33.679Z,6.70
2017-10-05T09:28:01.201Z,8.23
2017-10-05T09:30:29.602Z,7.68
2017-10-05T09:32:57.098Z,6.55
2017-10-05T09:35:24.605Z,8.40
2017-10-05T09:37:52.876Z,6.65
2017-10-05T09:40:21.224Z,10.88
2017-10-05T09:42:48.726Z,7.75
2017-10-05T09:45:16.237Z,8.27
2017-10-05T09:47:43.761Z,4.93
2017-10-05T09:50:11.295Z,8.40
2017-10-05T09:52:38.804Z,9.18
2017-10-05T09:55:06.365Z,8.23
2017-10-05T09:57:33.904Z,7.22
2017-10-05T10:00:01.456Z,7.25
2017-10-05T10:02:28.978Z,6.82
2017-10-05T10:04:56.480Z,8.65
2017-10-05T10:07:23.983Z,7.70
2017-10-05T10:09:51.614Z,8.00
2017-10-05T10:12:19.134Z,5.40
2017-10-05T10:14:47.447Z,8.40
2017-10-05T10:17:14.952Z,8.80
2017-10-05T10:19:42.456Z,9.30
2017-10-05T10:22:09.955Z,18.50
2017-10-05T10:24:37.468Z,6.50
2017-10-05T10:27:04.975Z,6.70
2017-10-05T10:29:32.496Z,6.12
2017-10-05T10:31:59.996Z,5.93
2017-10-05T10:34:27.650Z,6.57
2017-10-05T10:36:55.151Z,6.32
2017-10-05T10:39:23.428Z,7.75
2017-10-05T10:41:51.746Z,7.32
2017-10-05T10:44:19.251Z,7.53
2017-10-05T10:46:46.772Z,7.40
2017-10-05T10:49:14.274Z,8.25
2017-10-05T10:51:43.374Z,6.93
2017-10-05T10:54:11.674Z,9.65
2017-10-05T10:56:39.207Z,6.97
2017-10-05T10:59:06.750Z,5.50
2017-10-05T11:01:34.405Z,7.95
2017-10-05T11:04:01.913Z,6.82
2017-10-05T11:06:29.421Z,3.90
2017-10-05T11:08:56.936Z,5.15
2017-10-05T11:11:24.598Z,5.30
2017-10-05T11:13:52.115Z,5.45
2017-10-05T11:16:19.682Z,6.30
2017-10-05T11:18:47.213Z,4.50
2017-10-05T11:21:14.720Z,3.95
2017-10-05T11:23:43.020Z,4.30
2017-10-05T11:26:10.524Z,4.20
2017-10-05T11:28:38.054Z,2.97
2017-10-05T11:31:05.581Z,3.70
2017-10-05T11:33:33.092Z,4.43
2017-10-05T11:36:00.589Z,6.30
2017-10-05T11:38:28.094Z,4.03
2017-10-05T11:40:55.625Z,3.55
2017-10-05T11:43:23.129Z,4.07
2017-10-05T11:45:50.653Z,5.97
2017-10-05T11:48:18.159Z,3.08
2017-10-05T11:50:45.665Z,3.42
2017-10-05T11:53:13.187Z,2.53
2017-10-05T11:55:40.702Z,2.20
2017-10-05T11:58:08.202Z,2.22
2017-10-05T12:00:36.535Z,1.90
2017-10-05T12:03:04.048Z,4.28
2017-10-05T12:05:31.557Z,2.75
2017-10-05T12:07:59.135Z,1.60
2017-10-05T12:10:26.653Z,2.12
2017-10-05T12:12:54.304Z,1.83
2017-10-05T12:15:21.810Z,2.87
2017-10-05T12:17:49.369Z,2.80
2017-10-05T12:20:16.886Z,2.90
2017-10-05T12:22:44.394Z,3.28
2017-10-05T12:25:11.896Z,3.00
2017-10-05T12:27:40.175Z,2.78
2017-10-05T12:30:07.888Z,2.58
2017-10-05T12:32:35.425Z,5.60
2017-10-05T12:35:02.948Z,2.33
2017-10-05T12:37:31.225Z,2.08
2017-10-05T12:39:59.527Z,2.72
2017-10-05T12:42:27.024Z,2.50
2017-10-05T12:44:54.533Z,2.85
2017-10-05T12:47:22.074Z,3.37
2017-10-05T12:49:50.361Z,3.40
2017-10-05T12:52:18.647Z,2.78
2017-10-05T12:54:46.192Z,3.53
2017-10-05T12:57:14.560Z,4.55
2017-10-05T12:59:42.897Z,3.35
2017-10-05T13:02:10.449Z,3.75
2017-10-05T13:04:37.998Z,3.55
2017-10-05T13:07:05.559Z,4.37
2017-10-05T13:09:33.086Z,2.72
2017-10-05T13:12:01.388Z,2.85
2017-10-05T13:14:28.942Z,2.92
2017-10-05T13:16:56.451Z,2.62
2017-10-05T13:19:23.982Z,3.15
2017-10-05T13:21:51.533Z,3.22
2017-10-05T13:24:19.022Z,3.50
2017-10-05T13:26:46.523Z,3.33
2017-10-05T13:29:15.120Z,2.70
2017-10-05T13:31:42.644Z,2.70
2017-10-05T13:34:10.159Z,3.15
2017-10-05T13:36:37.692Z,2.35
2017-10-05T13:39:05.218Z,2.55
2017-10-05T13:41:32.719Z,2.40
2017-10-05T13:44:00.218Z,1.90
2017-10-05T13:46:27.788Z,3.40
2017-10-05T13:48:55.310Z,3.10
2017-10-05T13:51:22.818Z,2.40
2017-10-05T13:53:50.397Z,2.30
2017-10-05T13:56:18.682Z,2.60
2017-10-05T13:58:47.038Z,6.78
2017-10-05T14:01:14.556Z,2.80
2017-10-05T14:03:42.182Z,3.97
2017-10-05T14:06:09.714Z,11.00
2017-10-05T14:08:37.242Z,9.10
2017-10-05T14:11:04.763Z,2.40
2017-10-05T14:13:32.269Z,0.82
2017-10-05T14:15:59.768Z,1.67
2017-10-05T14:18:28.044Z,1.15
2017-10-05T14:20:56.336Z,3.15
2017-10-05T14:23:24.617Z,1.73
2017-10-05T14:25:52.127Z,3.05
2017-10-05T14:28:19.637Z,3.17
2017-10-05T14:30:47.167Z,2.10
2017-10-05T14:33:14.669Z,2.90
2017-10-05T14:35:42.174Z,4.53
2017-10-05T14:38:09.675Z,3.00
2017-10-05T14:40:37.181Z,4.95
2017-10-05T14:43:04.690Z,3.40
2017-10-05T14:45:32.184Z,3.60
2017-10-05T14:47:59.711Z,3.42
2017-10-05T14:57:49.202Z,1.80
2017-10-05T15:00:16.742Z,3.50
2017-10-05T15:02:44.250Z,2.30
2017-10-05T15:05:11.755Z,1.15
2017-10-05T15:07:39.268Z,1.67
2017-10-05T15:10:06.785Z,2.65
2017-10-05T15:12:34.300Z,1.27
2017-10-05T15:15:01.800Z,3.10
2017-10-05T15:17:29.319Z,2.45
2017-10-05T15:19:56.876Z,1.08
2017-10-05T15:22:24.384Z,2.80
2017-10-05T15:24:51.903Z,5.90
2017-10-05T15:27:19.437Z,1.08
2017-10-05T15:29:46.963Z,1.62
2017-10-05T15:42:05.124Z,2.47
2017-10-05T15:44:32.659Z,4.32
2017-10-05T15:47:00.178Z,0.93
2017-10-05T15:49:27.701Z,1.70
2017-10-05T15:51:55.226Z,3.55
2017-10-05T15:54:22.727Z,0.80
2017-10-05T15:56:50.236Z,0.95
2017-10-05T15:59:17.756Z,3.40
2017-10-05T16:01:45.263Z,4.30
2017-10-05T16:04:12.812Z,0.85
2017-10-05T16:06:40.369Z,1.02
2017-10-05T16:09:07.926Z,1.90
2017-10-05T16:11:35.434Z,0.98
2017-10-05T16:14:03.488Z,1.05
2017-10-05T16:16:31.017Z,4.37
2017-10-05T16:18:58.577Z,1.25
2017-10-05T16:21:26.784Z,1.60
